Time;durP1;ratioP1;P1;durP2;ratioP2;P2;SDS_P1;SDS_P2;PMS_P1;PMS_P2;Temp;Humidity;BMP_temperature;BMP_pressure;BME280_temperature;BME280_humidity;BME280_pressure;Samples;Min_cycle;Max_cycle;Signal;HPM_P1;HPM_P2
2023/08/19 00:00:59;;;;;;;33.90;30.50;;;;;;;22.65;83.68;101103.94;5010304;28;20385;-70
2023/08/19 00:03:24;;;;;;;29.95;26.98;;;;;;;22.66;83.11;101097.09;5012457;28;20041;-70
2023/08/19 00:05:50;;;;;;;32.80;29.45;;;;;;;22.62;83.44;101101.75;5010486;28;20026;-70
2023/08/19 00:08:15;;;;;;;32.75;29.38;;;;;;;22.65;83.74;101101.09;4998912;28;20026;-70
2023/08/19 00:10:41;;;;;;;34.65;30.92;;;;;;;22.62;83.62;101095.28;5010153;28;20509;-70
2023/08/19 00:13:07;;;;;;;32.45;29.25;;;;;;;22.61;83.17;101091.59;5012184;28;20528;-71
2023/08/19 00:15:33;;;;;;;33.30;29.98;;;;;;;22.60;83.34;101101.28;5011843;28;20080;-70
2023/08/19 00:18:02;;;;;;;28.30;25.50;;;;;;;22.62;83.13;101095.28;5012311;28;20034;-70
2023/08/19 00:20:28;;;;;;;30.17;27.38;;;;;;;22.59;83.46;101093.91;5009266;28;20030;-70
2023/08/19 00:22:57;;;;;;;30.50;27.55;;;;;;;22.61;83.24;101099.28;5011457;28;20065;-70
2023/08/19 00:25:24;;;;;;;30.55;27.65;;;;;;;22.59;83.77;101098.75;4997385;28;20026;-70
2023/08/19 00:27:50;;;;;;;31.13;28.05;;;;;;;22.59;83.43;101101.56;5006233;28;20056;-70
2023/08/19 00:30:15;;;;;;;29.73;26.83;;;;;;;22.59;83.54;101093.91;5008855;28;20042;-70
2023/08/19 00:32:42;;;;;;;28.85;26.13;;;;;;;22.58;82.98;101095.09;5010439;28;20137;-70
2023/08/19 00:35:07;;;;;;;30.15;26.92;;;;;;;22.61;84.01;101100.09;5010607;28;20032;-70
2023/08/19 00:37:35;;;;;;;28.63;25.95;;;;;;;22.61;83.49;101097.28;5010903;28;20040;-70
2023/08/19 00:40:01;;;;;;;31.15;28.02;;;;;;;22.61;84.48;101099.28;5009290;28;20036;-70
2023/08/19 00:42:27;;;;;;;28.30;25.40;;;;;;;22.60;84.09;101092.78;5003302;28;20466;-70
2023/08/19 00:44:52;;;;;;;24.88;22.27;;;;;;;22.60;82.99;101104.09;4999686;28;20030;-70
2023/08/19 00:47:18;;;;;;;31.13;27.98;;;;;;;22.57;84.85;101101.91;5012136;28;20029;-70
2023/08/19 00:49:43;;;;;;;29.85;26.75;;;;;;;22.58;84.09;101094.25;5010870;28;20136;-70
2023/08/19 00:52:09;;;;;;;30.58;27.55;;;;;;;22.52;84.13;101094.41;5003309;28;20050;-70
2023/08/19 00:54:34;;;;;;;30.35;27.17;;;;;;;22.54;84.06;101094.91;5008408;28;20088;-70
2023/08/19 00:57:00;;;;;;;31.33;28.17;;;;;;;22.56;84.60;101091.78;5005804;28;20018;-70
2023/08/19 00:59:26;;;;;;;26.60;23.95;;;;;;;22.58;83.83;101092.25;5013101;28;20454;-70
2023/08/19 01:01:52;;;;;;;31.45;28.15;;;;;;;22.53;84.61;101084.75;5012554;28;20064;-70
2023/08/19 01:04:17;;;;;;;30.17;27.27;;;;;;;22.57;84.11;101084.13;5014507;28;20552;-70
2023/08/19 01:07:03;;;;;;;30.42;27.30;;;;;;;22.59;84.57;101082.59;5015490;28;20092;-70
2023/08/19 01:10:03;;;;;;;27.17;24.42;;;;;;;22.60;83.80;101086.25;5001820;28;20042;-70
2023/08/19 01:12:35;;;;;;;29.92;26.67;;;;;;;22.57;83.79;101086.94;5005608;28;20037;-70
2023/08/19 01:15:21;;;;;;;28.92;26.02;;;;;;;22.60;83.93;101078.63;5015376;28;20030;-70
2023/08/19 01:17:50;;;;;;;25.75;23.27;;;;;;;22.58;84.07;101085.78;5013609;28;20038;-70
2023/08/19 01:20:16;;;;;;;29.42;26.52;;;;;;;22.57;84.78;101079.28;5014582;28;20033;-70
2023/08/19 01:23:00;;;;;;;27.67;24.85;;;;;;;22.57;84.06;101078.47;5013357;28;20135;-70
2023/08/19 01:25:26;;;;;;;28.33;25.40;;;;;;;22.58;85.06;101071.63;5003967;28;20673;-70
2023/08/19 01:27:51;;;;;;;24.38;22.05;;;;;;;22.59;84.21;101065.63;5014128;28;20030;-70
2023/08/19 01:30:17;;;;;;;27.25;24.63;;;;;;;22.58;84.73;101069.63;5013906;28;20174;-70
2023/08/19 01:32:43;;;;;;;28.10;25.40;;;;;;;22.59;84.92;101061.97;5011230;28;20037;-70
2023/08/19 01:35:10;;;;;;;27.50;24.80;;;;;;;22.57;85.45;101058.66;5013300;28;20040;-70
2023/08/19 01:37:43;;;;;;;23.25;21.05;;;;;;;22.59;83.60;101053.47;5014989;28;20474;-70
2023/08/19 01:40:11;;;;;;;24.52;22.13;;;;;;;22.57;84.04;101045.34;5013229;28;20034;-70
2023/08/19 01:42:37;;;;;;;25.30;22.83;;;;;;;22.57;84.26;101038.84;5008005;28;20448;-70
2023/08/19 01:45:03;;;;;;;24.50;22.10;;;;;;;22.59;85.11;101040.16;5012723;28;20026;-70
2023/08/19 01:47:29;;;;;;;27.17;24.58;;;;;;;22.57;84.85;101036.03;5014182;28;20049;-70
2023/08/19 01:49:54;;;;;;;24.88;22.52;;;;;;;22.59;84.18;101039.34;5011999;28;20018;-70
2023/08/19 01:52:19;;;;;;;25.67;23.23;;;;;;;22.59;84.90;101040.16;5012031;28;20038;-70
2023/08/19 01:54:45;;;;;;;25.15;22.67;;;;;;;22.59;84.57;101040.16;5011342;28;20755;-70
2023/08/19 01:57:10;;;;;;;23.13;20.98;;;;;;;22.61;84.61;101040.69;5014315;28;20030;-70
2023/08/19 01:59:36;;;;;;;23.42;21.05;;;;;;;22.62;84.59;101041.50;5011678;28;20532;-70
2023/08/19 02:02:01;;;;;;;24.20;21.80;;;;;;;22.60;84.53;101039.03;5013619;28;20028;-70
2023/08/19 02:04:26;;;;;;;21.65;19.65;;;;;;;22.62;83.87;101044.34;5011876;28;20033;-70
2023/08/19 02:06:53;;;;;;;21.58;19.58;;;;;;;22.62;84.19;101036.69;5009833;28;20465;-69
2023/08/19 02:09:18;;;;;;;21.23;18.83;;;;;;;22.60;82.91;101033.38;5012242;28;20061;-69
2023/08/19 02:11:44;;;;;;;22.30;20.17;;;;;;;22.59;84.31;101031.69;5013021;28;20084;-69
2023/08/19 02:14:09;;;;;;;21.15;19.15;;;;;;;22.61;83.98;101032.19;4998708;28;20557;-69
2023/08/19 02:16:34;;;;;;;21.42;19.45;;;;;;;22.60;84.15;101035.34;5012955;28;20025;-69
2023/08/19 02:19:00;;;;;;;22.20;20.00;;;;;;;22.60;83.84;101027.72;5013231;28;20478;-70
2023/08/19 02:21:26;;;;;;;20.05;18.05;;;;;;;22.61;83.66;101017.22;5012643;28;20358;-69
2023/08/19 02:23:52;;;;;;;19.73;17.73;;;;;;;22.62;83.51;101019.72;5009679;28;20061;-69
2023/08/19 02:26:17;;;;;;;21.45;19.17;;;;;;;22.61;83.73;101020.06;5012542;28;20343;-70
2023/08/19 02:28:43;;;;;;;19.38;17.38;;;;;;;22.61;83.33;101015.22;5010795;28;20057;-69
2023/08/19 02:31:08;;;;;;;21.30;19.13;;;;;;;22.58;83.45;101010.22;5010069;28;20080;-69
2023/08/19 02:33:33;;;;;;;20.50;18.50;;;;;;;22.61;83.99;101011.56;5011821;28;20037;-70
2023/08/19 02:35:59;;;;;;;21.20;19.20;;;;;;;22.60;84.13;101018.38;5012996;28;20026;-69
2023/08/19 02:38:24;;;;;;;17.17;15.48;;;;;;;22.62;82.83;101004.72;5007107;28;20037;-69
2023/08/19 02:40:50;;;;;;;20.58;18.48;;;;;;;22.61;84.28;101008.75;5012164;28;20022;-69
2023/08/19 02:43:16;;;;;;;17.55;15.95;;;;;;;22.61;83.17;101014.41;5011281;28;20065;-69
2023/08/19 02:45:42;;;;;;;17.98;16.33;;;;;;;22.60;83.57;101004.22;5013582;28;20084;-69
2023/08/19 02:48:08;;;;;;;19.20;17.27;;;;;;;22.59;84.83;101009.06;5006086;28;20470;-69
2023/08/19 02:50:33;;;;;;;18.83;16.98;;;;;;;22.58;84.66;101004.56;5007879;28;20076;-69
2023/08/19 02:52:58;;;;;;;20.45;17.73;;;;;;;22.57;84.39;101014.22;5012078;28;20033;-69
2023/08/19 02:55:24;;;;;;;18.45;16.65;;;;;;;22.58;84.29;101006.56;5012618;28;20456;-70
2023/08/19 02:57:49;;;;;;;17.50;15.70;;;;;;;22.59;83.15;101005.38;5009760;28;20025;-69
2023/08/19 03:00:15;;;;;;;19.15;17.33;;;;;;;22.57;84.16;101002.91;5009736;28;20417;-69
2023/08/19 03:02:44;;;;;;;18.85;16.55;;;;;;;22.58;84.23;101001.72;5011000;28;20061;-69
2023/08/19 03:05:09;;;;;;;18.13;16.42;;;;;;;22.58;83.64;101003.72;5012587;28;20030;-69
2023/08/19 03:07:35;;;;;;;17.45;15.73;;;;;;;22.58;83.56;101004.56;5010961;28;20040;-70
2023/08/19 03:10:00;;;;;;;16.88;15.27;;;;;;;22.57;83.17;101008.56;5010225;28;20057;-69
2023/08/19 03:12:25;;;;;;;16.80;15.00;;;;;;;22.59;84.05;101002.56;5012259;28;20126;-69
2023/08/19 03:14:51;;;;;;;16.23;14.80;;;;;;;22.59;83.63;101011.03;5012502;28;20120;-71
2023/08/19 03:17:16;;;;;;;17.33;15.63;;;;;;;22.57;83.38;101002.06;5002593;28;20113;-69
2023/08/19 03:19:41;;;;;;;17.63;15.73;;;;;;;22.59;83.54;101006.22;5012279;28;20397;-69
2023/08/19 03:22:07;;;;;;;17.95;16.25;;;;;;;22.57;83.68;100997.25;5010615;28;20503;-69
2023/08/19 03:24:32;;;;;;;19.15;16.35;;;;;;;22.57;83.85;100997.25;5011019;28;20823;-70
2023/08/19 03:26:57;;;;;;;17.95;16.15;;;;;;;22.55;83.67;100988.25;5013282;28;20620;-70
2023/08/19 03:29:25;;;;;;;18.95;16.73;;;;;;;22.54;83.98;100993.06;5009783;28;20038;-69
2023/08/19 03:31:50;;;;;;;15.68;14.27;;;;;;;22.55;82.48;100997.56;5007530;28;20041;-70
2023/08/19 03:34:16;;;;;;;15.45;13.95;;;;;;;22.56;82.57;100995.59;5007913;28;20096;-69
2023/08/19 03:36:41;;;;;;;16.98;15.35;;;;;;;22.55;83.87;100993.91;4993377;28;20030;-69
2023/08/19 03:39:06;;;;;;;16.70;15.15;;;;;;;22.54;82.97;101000.72;4995815;28;20081;-69
2023/08/19 03:41:32;;;;;;;15.88;14.27;;;;;;;22.56;83.29;101004.06;5007468;28;20481;-70
2023/08/19 03:43:57;;;;;;;16.77;15.27;;;;;;;22.54;82.94;101003.56;5012439;28;20080;-70
2023/08/19 03:46:22;;;;;;;17.30;14.93;;;;;;;22.53;82.99;101008.38;5011085;28;20049;-69
2023/08/19 03:48:47;;;;;;;16.70;15.20;;;;;;;22.54;83.19;101003.56;5011575;28;20033;-69
2023/08/19 03:51:13;;;;;;;17.65;14.70;;;;;;;22.55;83.35;101005.22;5007705;28;20116;-70
2023/08/19 03:53:38;;;;;;;16.73;15.23;;;;;;;22.52;83.41;101001.06;5005765;28;20041;-69
2023/08/19 03:56:04;;;;;;;17.52;15.77;;;;;;;22.51;83.61;101002.22;5011783;28;20038;-70
2023/08/19 03:58:29;;;;;;;16.08;14.32;;;;;;;22.51;83.40;100998.56;5011544;28;20489;-70
2023/08/19 04:01:04;;;;;;;15.60;14.07;;;;;;;22.50;83.02;101005.38;5010855;28;20140;-70
2023/08/19 04:03:29;;;;;;;15.25;13.85;;;;;;;22.50;82.87;101013.88;5000293;28;20401;-70
2023/08/19 04:05:54;;;;;;;16.48;13.65;;;;;;;22.51;82.53;101005.03;5000401;28;20022;-71
2023/08/19 04:08:19;;;;;;;16.30;14.60;;;;;;;22.49;83.16;101004.56;5011612;28;20030;-70
2023/08/19 04:10:45;;;;;;;15.80;14.02;;;;;;;22.50;82.86;101008.22;5010669;28;20477;-70
2023/08/19 04:13:10;;;;;;;14.77;13.27;;;;;;;22.49;82.17;101009.38;5009102;28;20037;-70
2023/08/19 04:15:35;;;;;;;15.43;12.88;;;;;;;22.51;82.33;101007.03;5010855;28;20036;-70
2023/08/19 04:18:01;;;;;;;14.65;13.13;;;;;;;22.51;82.58;101019.19;5010322;28;20117;-70
2023/08/19 04:20:26;;;;;;;15.85;13.35;;;;;;;22.48;82.88;101016.22;5003946;28;20121;-70
2023/08/19 04:22:51;;;;;;;13.98;12.63;;;;;;;22.49;82.72;101010.22;5010087;28;20100;-70
2023/08/19 04:25:17;;;;;;;13.70;12.30;;;;;;;22.50;82.53;101011.88;5008617;28;20034;-70
2023/08/19 04:27:42;;;;;;;14.10;12.80;;;;;;;22.48;82.78;101019.03;5011567;28;20025;-70
2023/08/19 04:30:08;;;;;;;13.38;11.98;;;;;;;22.49;82.07;101015.03;5011475;28;20049;-70
2023/08/19 04:32:33;;;;;;;15.63;12.38;;;;;;;22.47;82.32;101018.19;5011303;28;20033;-70
2023/08/19 04:34:59;;;;;;;15.02;12.32;;;;;;;22.48;82.31;101014.22;5012112;28;20042;-70
2023/08/19 04:37:24;;;;;;;13.85;12.30;;;;;;;22.48;82.09;101013.38;5006196;28;20611;-69
2023/08/19 04:39:50;;;;;;;12.00;10.80;;;;;;;22.48;82.08;101019.88;5013275;28;20033;-70
2023/08/19 04:42:15;;;;;;;13.23;11.82;;;;;;;22.48;82.11;101019.88;5014827;28;20022;-69
2023/08/19 04:44:40;;;;;;;12.55;11.52;;;;;;;22.50;81.46;101019.53;5013261;28;20470;-70
2023/08/19 04:47:06;;;;;;;13.13;11.93;;;;;;;22.49;81.30;101021.53;5014860;28;20580;-69
2023/08/19 04:49:31;;;;;;;12.20;11.02;;;;;;;22.49;81.82;101023.53;5014829;28;20033;-70
2023/08/19 04:51:57;;;;;;;14.60;12.52;;;;;;;22.49;81.58;101029.19;5009712;28;20025;-70
2023/08/19 04:54:23;;;;;;;12.85;11.65;;;;;;;22.47;82.03;101018.19;5002551;28;20548;-69
2023/08/19 04:56:48;;;;;;;12.75;11.48;;;;;;;22.50;81.75;101013.88;5007609;28;20034;-69
2023/08/19 04:59:13;;;;;;;12.40;11.10;;;;;;;22.50;80.98;101011.03;5008822;28;20069;-69
2023/08/19 05:01:39;;;;;;;11.88;10.77;;;;;;;22.50;81.06;101011.88;5005916;28;20073;-71
2023/08/19 05:04:04;;;;;;;13.57;11.73;;;;;;;22.49;81.68;101013.03;5014948;28;20043;-69
2023/08/19 05:06:30;;;;;;;12.30;11.13;;;;;;;22.50;81.28;101017.53;5001567;28;20133;-68
2023/08/19 05:08:55;;;;;;;14.20;11.32;;;;;;;22.52;81.56;101020.03;4996127;28;20030;-68
2023/08/19 05:11:20;;;;;;;13.80;10.90;;;;;;;22.51;81.46;101024.84;5006852;28;20084;-69
2023/08/19 05:13:46;;;;;;;10.90;9.90;;;;;;;22.51;80.34;101026.84;5014719;28;20044;-70
2023/08/19 05:16:11;;;;;;;11.90;10.80;;;;;;;22.51;81.09;101016.34;5012635;28;20036;-69
2023/08/19 05:18:37;;;;;;;12.45;10.50;;;;;;;22.52;81.26;101022.88;5010114;28;20030;-70
2023/08/19 05:21:02;;;;;;;12.05;10.82;;;;;;;22.52;81.49;101031.34;5003129;28;20030;-70
2023/08/19 05:23:28;;;;;;;12.00;10.77;;;;;;;22.52;81.24;101025.69;5010691;28;20109;-70
2023/08/19 05:25:53;;;;;;;11.32;10.30;;;;;;;22.53;81.03;101033.84;5013989;28;20371;-70
2023/08/19 05:28:18;;;;;;;11.45;10.18;;;;;;;22.53;81.32;101041.50;5008475;28;20496;-71
2023/08/19 05:30:44;;;;;;;12.30;10.80;;;;;;;22.53;81.09;101033.84;5010166;28;20045;-71
2023/08/19 05:33:09;;;;;;;11.13;10.13;;;;;;;22.56;80.60;101029.53;5013638;28;20038;-69
2023/08/19 05:35:34;;;;;;;12.38;10.95;;;;;;;22.55;81.02;101030.69;5013174;28;20496;-68
2023/08/19 05:37:59;;;;;;;11.73;10.52;;;;;;;22.58;80.79;101032.03;5011275;28;20160;-69
2023/08/19 05:40:25;;;;;;;11.75;10.55;;;;;;;22.57;80.76;101031.19;5013820;28;20033;-69
2023/08/19 05:42:50;;;;;;;11.10;10.00;;;;;;;22.57;80.65;101028.38;5013394;28;20083;-69
2023/08/19 05:45:15;;;;;;;11.38;10.38;;;;;;;22.58;81.02;101035.69;5008959;28;20018;-71
2023/08/19 05:47:41;;;;;;;11.15;10.05;;;;;;;22.58;81.06;101040.50;5003431;28;20028;-69
2023/08/19 05:50:07;;;;;;;10.23;9.32;;;;;;;22.58;80.74;101041.34;5014430;28;20072;-69
2023/08/19 05:52:32;;;;;;;11.10;10.00;;;;;;;22.59;81.07;101037.34;5012421;28;20030;-69
2023/08/19 05:54:57;;;;;;;11.85;10.43;;;;;;;22.60;80.82;101029.69;5010688;28;20022;-68
2023/08/19 05:57:23;;;;;;;12.30;9.80;;;;;;;22.60;80.71;101030.53;5009099;28;20436;-68
2023/08/19 05:59:49;;;;;;;10.60;9.43;;;;;;;22.61;80.52;101032.19;5013162;28;20037;-69
2023/08/19 06:02:14;;;;;;;11.38;10.18;;;;;;;22.63;80.83;101040.34;5014786;28;20053;-69
2023/08/19 06:04:39;;;;;;;11.18;9.50;;;;;;;22.63;80.50;101058.16;5009975;28;20044;-69
2023/08/19 06:07:05;;;;;;;10.43;9.07;;;;;;;22.62;80.42;101059.31;5014086;28;20026;-69
2023/08/19 06:09:30;;;;;;;10.77;9.68;;;;;;;22.64;80.43;101059.84;5012734;28;20038;-69
2023/08/19 06:11:56;;;;;;;10.50;9.38;;;;;;;22.65;80.27;101050.19;5014607;28;20026;-69
2023/08/19 06:14:21;;;;;;;11.93;9.50;;;;;;;22.65;80.69;101053.00;5008515;28;20030;-70
2023/08/19 06:16:47;;;;;;;13.77;9.73;;;;;;;22.69;80.26;101067.34;5014217;28;20034;-69
2023/08/19 06:19:12;;;;;;;12.57;10.27;;;;;;;22.71;80.00;101056.50;5013458;28;20026;-70
2023/08/19 06:21:38;;;;;;;12.68;9.77;;;;;;;22.69;80.50;101056.84;5013492;28;20037;-69
2023/08/19 06:24:04;;;;;;;12.48;10.60;;;;;;;22.70;79.77;101060.50;5012653;28;20041;-69
2023/08/19 06:26:30;;;;;;;12.43;9.95;;;;;;;22.74;79.98;101079.31;5011430;28;20034;-69
2023/08/19 06:28:55;;;;;;;10.82;9.75;;;;;;;22.74;79.72;101068.00;5012304;28;20042;-69
2023/08/19 06:31:21;;;;;;;12.05;9.93;;;;;;;22.78;79.64;101076.66;5009064;28;20045;-69
2023/08/19 06:33:46;;;;;;;14.23;10.02;;;;;;;22.82;79.62;101079.66;4993694;28;20068;-69
2023/08/19 06:36:16;;;;;;;12.98;9.68;;;;;;;22.84;79.11;101080.19;5010171;28;20492;-69
2023/08/19 06:38:48;;;;;;;13.18;9.93;;;;;;;22.87;79.36;101080.34;5014053;28;20111;-69
2023/08/19 06:41:16;;;;;;;10.73;9.40;;;;;;;22.92;79.61;101087.88;5011618;28;20030;-69
2023/08/19 06:43:43;;;;;;;12.60;9.20;;;;;;;22.95;79.04;101087.19;5013850;28;20560;-69
2023/08/19 06:46:08;;;;;;;17.08;10.18;;;;;;;22.98;79.24;101092.19;5011842;28;20084;-69
2023/08/19 06:48:35;;;;;;;13.45;9.32;;;;;;;22.99;78.87;101099.53;5011813;28;20038;-69
2023/08/19 06:51:01;;;;;;;11.10;9.95;;;;;;;23.01;79.11;101100.88;5005738;28;20031;-69
2023/08/19 06:53:27;;;;;;;10.82;8.95;;;;;;;23.03;78.55;101097.72;5012806;28;20112;-69
2023/08/19 06:56:02;;;;;;;12.02;9.18;;;;;;;23.06;78.16;101099.88;5006728;28;20560;-70
2023/08/19 06:58:32;;;;;;;10.98;9.35;;;;;;;23.09;77.47;101102.03;5008913;28;20050;-69
2023/08/19 07:01:03;;;;;;;10.40;8.55;;;;;;;23.11;78.31;101104.53;5010862;28;20028;-69
2023/08/19 07:03:32;;;;;;;13.15;9.20;;;;;;;23.12;78.32;101109.06;5011059;28;20026;-69
2023/08/19 07:05:59;;;;;;;11.15;9.70;;;;;;;23.12;77.94;101104.22;5010999;28;20045;-69
2023/08/19 07:08:27;;;;;;;13.02;9.15;;;;;;;23.13;78.39;101111.53;5013014;28;20432;-69
2023/08/19 07:10:52;;;;;;;11.05;9.57;;;;;;;23.15;78.85;101105.56;5011300;28;20026;-69
2023/08/19 07:13:18;;;;;;;11.15;9.27;;;;;;;23.21;77.96;101112.72;5008751;28;20037;-69
2023/08/19 07:15:48;;;;;;;12.13;9.23;;;;;;;23.30;78.16;101105.03;5009271;28;20381;-69
2023/08/19 07:18:18;;;;;;;14.63;9.77;;;;;;;23.40;77.59;101106.72;4997714;28;20049;-69
2023/08/19 07:20:43;;;;;;;11.35;9.38;;;;;;;23.52;77.60;101113.38;5005889;28;20108;-69
2023/08/19 07:23:09;;;;;;;12.50;9.57;;;;;;;23.65;77.47;101107.84;4997525;28;20146;-69
2023/08/19 07:25:35;;;;;;;12.20;9.70;;;;;;;23.80;76.87;101104.53;4993539;28;20375;-68
2023/08/19 07:28:03;;;;;;;11.18;9.43;;;;;;;23.90;76.69;101120.38;5002577;28;20037;-67
2023/08/19 07:30:29;;;;;;;16.05;9.40;;;;;;;23.95;75.78;101112.50;5008249;28;20465;-68
2023/08/19 07:32:54;;;;;;;12.10;9.07;;;;;;;23.92;74.96;101095.34;5002966;28;20068;-69
2023/08/19 07:35:20;;;;;;;10.98;9.68;;;;;;;23.93;75.18;101126.19;4996564;28;20034;-69
2023/08/19 07:37:45;;;;;;;10.70;9.45;;;;;;;24.01;75.64;101124.47;5009667;28;20022;-68
2023/08/19 07:40:11;;;;;;;11.75;9.45;;;;;;;24.07;75.12;101143.00;5012825;28;20528;-69
2023/08/19 07:42:37;;;;;;;14.40;8.93;;;;;;;24.11;75.39;101140.31;5012497;28;20029;-68
2023/08/19 07:45:03;;;;;;;13.95;9.45;;;;;;;24.13;75.16;101144.50;5012179;28;20036;-68
2023/08/19 07:47:30;;;;;;;10.98;8.93;;;;;;;24.14;75.52;101140.47;5009925;28;20034;-68
2023/08/19 07:49:55;;;;;;;12.75;8.82;;;;;;;24.18;75.39;101144.31;4994220;28;20038;-66
2023/08/19 07:52:21;;;;;;;14.35;9.50;;;;;;;24.19;75.63;101154.47;5002532;28;20470;-67
2023/08/19 07:54:46;;;;;;;13.40;9.55;;;;;;;24.20;75.37;101160.97;5009258;28;20040;-68
2023/08/19 07:57:11;;;;;;;10.50;9.40;;;;;;;24.21;75.23;101159.81;5009097;28;20449;-68
2023/08/19 07:59:37;;;;;;;11.07;8.93;;;;;;;24.18;75.21;101160.50;5006824;28;20038;-68
2023/08/19 08:02:02;;;;;;;12.25;9.30;;;;;;;24.19;76.11;101142.28;5009202;28;20783;-68
2023/08/19 08:04:28;;;;;;;10.02;9.05;;;;;;;24.17;76.85;101136.97;5000997;28;20037;-70
2023/08/19 08:06:54;;;;;;;10.93;9.00;;;;;;;24.18;76.13;101146.31;5008315;28;20120;-69
2023/08/19 08:09:19;;;;;;;9.77;8.35;;;;;;;24.18;76.49;101155.66;5004905;28;20045;-70
2023/08/19 08:11:45;;;;;;;12.07;8.93;;;;;;;24.18;76.04;101149.16;5008885;28;20061;-70
2023/08/19 08:14:11;;;;;;;11.20;8.88;;;;;;;24.19;77.03;101165.81;5008106;28;20452;-70
2023/08/19 08:16:36;;;;;;;9.75;8.45;;;;;;;24.16;76.41;101157.97;5009536;28;20025;-71
2023/08/19 08:19:02;;;;;;;14.02;9.30;;;;;;;24.13;76.48;101158.66;5005330;28;20037;-71
2023/08/19 08:21:27;;;;;;;11.25;9.32;;;;;;;24.15;76.34;101164.81;4994410;28;20034;-70
2023/08/19 08:23:54;;;;;;;9.48;8.35;;;;;;;24.14;76.17;101166.00;4989220;28;20525;-70
2023/08/19 08:26:20;;;;;;;11.55;8.40;;;;;;;24.13;76.21;101178.53;4988030;28;20072;-70
2023/08/19 08:28:45;;;;;;;8.98;8.02;;;;;;;24.15;76.42;101184.69;4992596;28;20054;-69
2023/08/19 08:31:11;;;;;;;9.52;8.52;;;;;;;24.14;77.12;101200.03;5006915;28;20066;-70
2023/08/19 08:33:36;;;;;;;9.50;8.48;;;;;;;24.15;76.91;101179.00;5008348;28;20474;-70
2023/08/19 08:36:01;;;;;;;9.43;8.30;;;;;;;24.14;76.96;101170.84;5006963;28;20084;-70
2023/08/19 08:38:27;;;;;;;13.05;9.18;;;;;;;24.11;77.35;101220.56;4996757;28;20173;-70
2023/08/19 08:40:52;;;;;;;9.85;8.57;;;;;;;24.09;78.80;101214.41;5003851;28;20037;-69
2023/08/19 08:43:18;;;;;;;12.38;8.85;;;;;;;24.09;78.90;101225.75;5008206;28;20030;-70
2023/08/19 08:45:44;;;;;;;12.52;9.30;;;;;;;24.07;78.50;101211.06;5009041;28;20037;-70
2023/08/19 08:48:11;;;;;;;10.43;9.00;;;;;;;24.07;78.53;101216.72;4996050;28;20038;-70
2023/08/19 08:50:37;;;;;;;12.18;8.50;;;;;;;24.07;78.08;101213.88;5007602;28;20026;-70
2023/08/19 08:53:03;;;;;;;15.20;9.93;;;;;;;24.07;78.72;101205.38;5004647;28;20088;-70
2023/08/19 08:55:29;;;;;;;14.85;9.32;;;;;;;24.06;78.83;101220.72;4992300;28;20050;-67
2023/08/19 08:57:54;;;;;;;11.43;8.88;;;;;;;24.06;77.86;101232.09;5005084;28;20026;-70
2023/08/19 09:00:20;;;;;;;11.23;9.40;;;;;;;24.06;78.73;101237.75;5009726;28;20049;-70
2023/08/19 09:02:46;;;;;;;13.05;9.35;;;;;;;24.07;79.20;101230.06;5008699;28;20025;-70
2023/08/19 09:05:12;;;;;;;11.52;9.60;;;;;;;24.07;78.52;101247.09;5009274;28;20040;-70
2023/08/19 09:07:39;;;;;;;14.95;10.38;;;;;;;24.11;79.13;101246.06;5009375;28;20042;-70
2023/08/19 09:10:14;;;;;;;10.93;9.82;;;;;;;24.11;78.36;101250.91;5006264;28;20113;-70
2023/08/19 09:12:44;;;;;;;11.82;10.02;;;;;;;24.15;79.10;101255.59;4992506;28;20025;-70
2023/08/19 09:15:13;;;;;;;11.30;10.13;;;;;;;24.18;78.76;101246.41;5001872;28;20030;-70
2023/08/19 09:17:39;;;;;;;20.55;11.38;;;;;;;24.21;78.70;101262.75;5007218;28;20049;-70
2023/08/19 09:20:07;;;;;;;16.20;10.60;;;;;;;24.23;78.19;101265.25;5004042;28;20104;-69
2023/08/19 09:22:33;;;;;;;13.90;11.77;;;;;;;24.27;79.06;101254.06;5007227;28;20084;-71
2023/08/19 09:24:58;;;;;;;13.48;11.35;;;;;;;24.28;78.35;101272.75;5006885;28;20030;-70
2023/08/19 09:27:26;;;;;;;16.38;12.10;;;;;;;24.31;78.44;101272.09;5011474;28;20366;-70
2023/08/19 09:29:51;;;;;;;14.73;12.68;;;;;;;24.33;78.69;101278.25;5010765;28;20042;-69
2023/08/19 09:32:33;;;;;;;17.13;12.88;;;;;;;24.37;78.50;101279.25;5012313;28;20035;-70
2023/08/19 09:35:12;;;;;;;17.50;14.02;;;;;;;24.42;78.83;101282.78;5004135;28;20460;-71
2023/08/19 09:37:38;;;;;;;15.80;13.73;;;;;;;24.48;79.52;101284.28;5007663;28;20475;-69
2023/08/19 09:40:11;;;;;;;16.65;14.05;;;;;;;24.52;78.24;101295.75;5006323;28;20022;-70
2023/08/19 09:42:40;;;;;;;20.40;14.63;;;;;;;24.61;78.39;101295.75;5001618;28;20419;-69
2023/08/19 09:45:06;;;;;;;20.08;14.30;;;;;;;24.70;78.94;101297.41;5008530;28;20481;-69
2023/08/19 09:47:46;;;;;;;18.55;14.40;;;;;;;24.80;78.53;101304.72;5011246;28;20038;-71
2023/08/19 09:50:11;;;;;;;17.98;14.65;;;;;;;24.90;77.86;101306.34;5008250;28;20029;-71
2023/08/19 09:52:38;;;;;;;16.33;14.50;;;;;;;25.01;78.23;101307.66;5001777;28;20037;-71
2023/08/19 09:55:03;;;;;;;16.92;14.48;;;;;;;25.01;77.05;101319.00;5002889;28;20125;-71
2023/08/19 09:57:35;;;;;;;15.75;14.18;;;;;;;25.00;76.59;101322.19;5009950;28;20978;-71
2023/08/19 10:00:03;;;;;;;19.90;14.35;;;;;;;24.98;76.49;101322.53;5005443;28;20366;-69
2023/08/19 10:02:29;;;;;;;17.77;14.13;;;;;;;25.07;77.65;101328.16;5010372;28;20380;-69
2023/08/19 10:04:57;;;;;;;18.98;14.73;;;;;;;25.08;76.22;101332.69;5009702;28;20026;-69
2023/08/19 10:07:33;;;;;;;15.50;13.93;;;;;;;25.08;76.64;101335.53;5010759;28;20044;-69
2023/08/19 10:10:04;;;;;;;15.75;14.05;;;;;;;25.05;75.79;101339.88;5007677;28;20037;-68
2023/08/19 10:12:34;;;;;;;19.98;14.15;;;;;;;25.06;75.87;101332.19;5005779;28;20036;-70
2023/08/19 10:15:01;;;;;;;16.13;13.68;;;;;;;25.06;75.84;101344.38;4999509;28;20061;-70
2023/08/19 10:17:31;;;;;;;15.70;13.30;;;;;;;25.07;75.66;101339.53;5010840;28;20033;-70
2023/08/19 10:20:02;;;;;;;16.20;13.98;;;;;;;25.08;75.79;101341.22;5011208;28;20029;-71
2023/08/19 10:22:30;;;;;;;15.65;13.65;;;;;;;25.10;76.05;101341.72;5009482;28;20029;-70
2023/08/19 10:24:57;;;;;;;15.85;14.30;;;;;;;25.25;76.82;101351.69;5010443;28;20139;-70
2023/08/19 10:27:23;;;;;;;16.17;13.57;;;;;;;25.36;75.15;101350.16;5010047;28;20061;-69
2023/08/19 10:29:55;;;;;;;15.20;13.57;;;;;;;25.44;75.60;101355.78;4998552;28;20448;-68
2023/08/19 10:32:28;;;;;;;15.45;13.85;;;;;;;25.43;75.08;101353.31;4998911;28;20044;-67
2023/08/19 10:35:09;;;;;;;15.98;13.00;;;;;;;25.44;75.02;101361.47;5012378;28;20014;-68
2023/08/19 10:37:55;;;;;;;16.92;13.95;;;;;;;25.54;75.36;101354.56;5010806;28;20041;-67
2023/08/19 10:40:24;;;;;;;18.98;13.90;;;;;;;25.55;74.61;101356.25;5002962;28;20488;-68
2023/08/19 10:43:00;;;;;;;16.05;13.80;;;;;;;25.58;74.55;101375.44;5009199;28;20026;-69
2023/08/19 10:45:33;;;;;;;13.90;12.50;;;;;;;25.53;74.44;101381.31;5011801;28;20034;-68
2023/08/19 10:47:58;;;;;;;19.02;13.23;;;;;;;25.54;74.66;101382.97;5008772;28;20033;-68
2023/08/19 10:50:26;;;;;;;15.02;12.27;;;;;;;25.50;74.19;101386.84;5005604;28;20389;-70
2023/08/19 10:53:03;;;;;;;13.88;12.40;;;;;;;25.43;74.81;101398.78;5011626;28;20029;-69
2023/08/19 10:55:55;;;;;;;14.65;12.88;;;;;;;25.37;75.22;101405.81;5009054;28;20026;-68
2023/08/19 10:58:22;;;;;;;17.25;14.55;;;;;;;25.28;74.55;101414.38;5011485;28;20030;-69
2023/08/19 11:00:48;;;;;;;17.50;14.88;;;;;;;25.23;74.94;101411.72;5008466;28;20088;-68
2023/08/19 11:03:15;;;;;;;16.77;14.98;;;;;;;25.18;75.02;101415.53;5005333;28;20049;-69
2023/08/19 11:05:51;;;;;;;17.77;14.23;;;;;;;25.15;74.70;101424.78;5010031;28;20029;-69
2023/08/19 11:08:16;;;;;;;17.85;14.10;;;;;;;25.13;75.17;101429.13;4998115;28;20041;-69
2023/08/19 11:10:46;;;;;;;17.73;14.73;;;;;;;25.09;74.92;101420.44;5009961;28;20116;-70